sensor_id;sensor_type;location;lat;lon;timestamp;P1;durP1;ratioP1;P2;durP2;ratioP2
37383;SDS011;23258;49.718;11.082;2023-04-24T00:01:45;2.55;;;2.35;;
37383;SDS011;23258;49.718;11.082;2023-04-24T00:04:17;2.08;;;1.85;;
37383;SDS011;23258;49.718;11.082;2023-04-24T00:06:47;2.10;;;1.88;;
37383;SDS011;23258;49.718;11.082;2023-04-24T00:09:19;2.15;;;2.00;;
37383;SDS011;23258;49.718;11.082;2023-04-24T00:11:49;2.28;;;2.08;;
37383;SDS011;23258;49.718;11.082;2023-04-24T00:14:19;2.53;;;2.00;;
37383;SDS011;23258;49.718;11.082;2023-04-24T00:16:48;2.67;;;2.40;;
37383;SDS011;23258;49.718;11.082;2023-04-24T00:19:21;3.20;;;2.38;;
37383;SDS011;23258;49.718;11.082;2023-04-24T00:21:50;2.20;;;1.98;;
37383;SDS011;23258;49.718;11.082;2023-04-24T00:24:20;1.88;;;1.77;;
37383;SDS011;23258;49.718;11.082;2023-04-24T00:26:50;1.80;;;1.70;;
37383;SDS011;23258;49.718;11.082;2023-04-24T00:29:20;2.03;;;1.90;;
37383;SDS011;23258;49.718;11.082;2023-04-24T00:31:49;2.15;;;1.80;;
37383;SDS011;23258;49.718;11.082;2023-04-24T00:34:21;4.00;;;1.65;;
37383;SDS011;23258;49.718;11.082;2023-04-24T00:36:52;2.22;;;2.03;;
37383;SDS011;23258;49.718;11.082;2023-04-24T00:39:21;1.88;;;1.77;;
37383;SDS011;23258;49.718;11.082;2023-04-24T00:41:52;1.88;;;1.77;;
37383;SDS011;23258;49.718;11.082;2023-04-24T00:44:22;1.90;;;1.83;;
37383;SDS011;23258;49.718;11.082;2023-04-24T00:46:51;2.92;;;1.80;;
37383;SDS011;23258;49.718;11.082;2023-04-24T00:49:24;1.73;;;1.65;;
37383;SDS011;23258;49.718;11.082;2023-04-24T00:51:53;2.15;;;2.00;;
37383;SDS011;23258;49.718;11.082;2023-04-24T00:54:25;2.08;;;1.98;;
37383;SDS011;23258;49.718;11.082;2023-04-24T00:56:55;1.90;;;1.80;;
37383;SDS011;23258;49.718;11.082;2023-04-24T00:59:25;1.67;;;1.58;;
37383;SDS011;23258;49.718;11.082;2023-04-24T01:01:55;2.28;;;1.80;;
37383;SDS011;23258;49.718;11.082;2023-04-24T01:04:27;2.35;;;2.10;;
37383;SDS011;23258;49.718;11.082;2023-04-24T01:06:57;2.15;;;1.95;;
37383;SDS011;23258;49.718;11.082;2023-04-24T01:09:27;2.33;;;1.90;;
37383;SDS011;23258;49.718;11.082;2023-04-24T01:11:56;1.55;;;1.45;;
37383;SDS011;23258;49.718;11.082;2023-04-24T01:14:27;1.52;;;1.48;;
37383;SDS011;23258;49.718;11.082;2023-04-24T01:16:57;2.30;;;2.10;;
37383;SDS011;23258;49.718;11.082;2023-04-24T01:19:30;2.17;;;2.00;;
37383;SDS011;23258;49.718;11.082;2023-04-24T01:22:01;1.70;;;1.60;;
37383;SDS011;23258;49.718;11.082;2023-04-24T01:24:35;1.70;;;1.60;;
37383;SDS011;23258;49.718;11.082;2023-04-24T01:27:05;2.90;;;1.73;;
37383;SDS011;23258;49.718;11.082;2023-04-24T01:29:35;1.77;;;1.67;;
37383;SDS011;23258;49.718;11.082;2023-04-24T01:32:05;1.98;;;1.85;;
37383;SDS011;23258;49.718;11.082;2023-04-24T01:34:34;1.42;;;1.33;;
37383;SDS011;23258;49.718;11.082;2023-04-24T01:37:04;1.73;;;1.63;;
37383;SDS011;23258;49.718;11.082;2023-04-24T01:39:37;1.50;;;1.40;;
37383;SDS011;23258;49.718;11.082;2023-04-24T01:42:07;2.20;;;2.10;;
37383;SDS011;23258;49.718;11.082;2023-04-24T01:44:38;2.30;;;2.10;;
37383;SDS011;23258;49.718;11.082;2023-04-24T01:47:09;1.83;;;1.70;;
37383;SDS011;23258;49.718;11.082;2023-04-24T01:49:39;1.83;;;1.73;;
37383;SDS011;23258;49.718;11.082;2023-04-24T01:52:11;1.90;;;1.80;;
37383;SDS011;23258;49.718;11.082;2023-04-24T01:54:43;1.90;;;1.80;;
37383;SDS011;23258;49.718;11.082;2023-04-24T01:57:13;2.05;;;1.63;;
37383;SDS011;23258;49.718;11.082;2023-04-24T01:59:43;2.05;;;1.95;;
37383;SDS011;23258;49.718;11.082;2023-04-24T02:02:13;2.28;;;1.88;;
37383;SDS011;23258;49.718;11.082;2023-04-24T02:04:43;1.65;;;1.55;;
37383;SDS011;23258;49.718;11.082;2023-04-24T02:07:13;2.22;;;2.10;;
37383;SDS011;23258;49.718;11.082;2023-04-24T02:09:45;2.00;;;1.90;;
37383;SDS011;23258;49.718;11.082;2023-04-24T02:12:15;1.75;;;1.65;;
37383;SDS011;23258;49.718;11.082;2023-04-24T02:14:45;2.47;;;2.10;;
37383;SDS011;23258;49.718;11.082;2023-04-24T02:17:14;3.10;;;2.10;;
37383;SDS011;23258;49.718;11.082;2023-04-24T02:19:45;2.65;;;2.03;;
37383;SDS011;23258;49.718;11.082;2023-04-24T02:22:16;1.80;;;1.70;;
37383;SDS011;23258;49.718;11.082;2023-04-24T02:24:48;2.55;;;1.88;;
37383;SDS011;23258;49.718;11.082;2023-04-24T02:27:17;1.83;;;1.73;;
37383;SDS011;23258;49.718;11.082;2023-04-24T02:29:47;1.88;;;1.77;;
37383;SDS011;23258;49.718;11.082;2023-04-24T02:32:17;1.63;;;1.52;;
37383;SDS011;23258;49.718;11.082;2023-04-24T02:34:46;1.70;;;1.48;;
37383;SDS011;23258;49.718;11.082;2023-04-24T02:37:16;2.10;;;1.90;;
37383;SDS011;23258;49.718;11.082;2023-04-24T02:39:48;1.98;;;1.73;;
37383;SDS011;23258;49.718;11.082;2023-04-24T02:42:18;1.50;;;1.40;;
37383;SDS011;23258;49.718;11.082;2023-04-24T02:44:47;1.65;;;1.55;;
37383;SDS011;23258;49.718;11.082;2023-04-24T02:47:18;2.45;;;2.00;;
37383;SDS011;23258;49.718;11.082;2023-04-24T02:49:48;2.05;;;1.50;;
37383;SDS011;23258;49.718;11.082;2023-04-24T02:52:18;1.30;;;1.30;;
37383;SDS011;23258;49.718;11.082;2023-04-24T02:54:50;1.67;;;1.58;;
37383;SDS011;23258;49.718;11.082;2023-04-24T02:57:20;2.03;;;1.92;;
37383;SDS011;23258;49.718;11.082;2023-04-24T02:59:50;1.83;;;1.55;;
37383;SDS011;23258;49.718;11.082;2023-04-24T03:02:19;1.63;;;1.52;;
37383;SDS011;23258;49.718;11.082;2023-04-24T03:04:50;1.60;;;1.50;;
37383;SDS011;23258;49.718;11.082;2023-04-24T03:07:20;1.50;;;1.40;;
37383;SDS011;23258;49.718;11.082;2023-04-24T03:09:53;1.05;;;1.02;;
37383;SDS011;23258;49.718;11.082;2023-04-24T03:12:25;1.13;;;1.10;;
37383;SDS011;23258;49.718;11.082;2023-04-24T03:14:55;1.30;;;1.30;;
37383;SDS011;23258;49.718;11.082;2023-04-24T03:17:24;1.50;;;1.10;;
37383;SDS011;23258;49.718;11.082;2023-04-24T03:19:54;1.45;;;1.35;;
37383;SDS011;23258;49.718;11.082;2023-04-24T03:22:24;1.10;;;1.10;;
37383;SDS011;23258;49.718;11.082;2023-04-24T03:24:56;1.27;;;1.17;;
37383;SDS011;23258;49.718;11.082;2023-04-24T03:27:26;1.60;;;1.50;;
37383;SDS011;23258;49.718;11.082;2023-04-24T03:30:04;1.05;;;1.05;;
37383;SDS011;23258;49.718;11.082;2023-04-24T03:32:43;1.63;;;1.52;;
37383;SDS011;23258;49.718;11.082;2023-04-24T03:35:17;1.38;;;1.08;;
37383;SDS011;23258;49.718;11.082;2023-04-24T03:37:48;1.10;;;1.10;;
37383;SDS011;23258;49.718;11.082;2023-04-24T03:40:40;2.78;;;1.30;;
37383;SDS011;23258;49.718;11.082;2023-04-24T03:43:36;1.30;;;1.20;;
37383;SDS011;23258;49.718;11.082;2023-04-24T03:46:06;3.28;;;1.27;;
37383;SDS011;23258;49.718;11.082;2023-04-24T03:48:44;1.35;;;1.25;;
37383;SDS011;23258;49.718;11.082;2023-04-24T03:51:16;1.30;;;1.27;;
37383;SDS011;23258;49.718;11.082;2023-04-24T03:53:48;2.80;;;1.70;;
37383;SDS011;23258;49.718;11.082;2023-04-24T03:56:23;1.00;;;1.00;;
37383;SDS011;23258;49.718;11.082;2023-04-24T03:58:53;1.35;;;1.25;;
37383;SDS011;23258;49.718;11.082;2023-04-24T04:01:23;1.27;;;1.17;;
37383;SDS011;23258;49.718;11.082;2023-04-24T04:03:58;1.42;;;1.35;;
37383;SDS011;23258;49.718;11.082;2023-04-24T04:06:29;1.25;;;1.15;;
37383;SDS011;23258;49.718;11.082;2023-04-24T04:09:00;1.50;;;1.40;;
37383;SDS011;23258;49.718;11.082;2023-04-24T04:11:32;1.38;;;1.27;;
37383;SDS011;23258;49.718;11.082;2023-04-24T04:14:02;1.02;;;1.02;;
37383;SDS011;23258;49.718;11.082;2023-04-24T04:16:33;1.58;;;1.30;;
37383;SDS011;23258;49.718;11.082;2023-04-24T04:19:04;1.30;;;1.30;;
37383;SDS011;23258;49.718;11.082;2023-04-24T04:21:35;1.52;;;1.42;;
37383;SDS011;23258;49.718;11.082;2023-04-24T04:24:13;3.03;;;1.00;;
37383;SDS011;23258;49.718;11.082;2023-04-24T04:26:47;1.48;;;1.30;;
37383;SDS011;23258;49.718;11.082;2023-04-24T04:29:27;0.90;;;0.90;;
37383;SDS011;23258;49.718;11.082;2023-04-24T04:31:59;1.02;;;1.02;;
37383;SDS011;23258;49.718;11.082;2023-04-24T04:34:29;1.15;;;1.15;;
37383;SDS011;23258;49.718;11.082;2023-04-24T04:36:59;0.95;;;0.95;;
37383;SDS011;23258;49.718;11.082;2023-04-24T04:39:59;1.10;;;1.00;;
37383;SDS011;23258;49.718;11.082;2023-04-24T04:42:41;1.13;;;1.13;;
37383;SDS011;23258;49.718;11.082;2023-04-24T04:45:13;2.38;;;1.45;;
37383;SDS011;23258;49.718;11.082;2023-04-24T04:48:06;1.83;;;1.02;;
37383;SDS011;23258;49.718;11.082;2023-04-24T04:50:36;1.02;;;1.02;;
37383;SDS011;23258;49.718;11.082;2023-04-24T04:53:07;1.27;;;1.15;;
37383;SDS011;23258;49.718;11.082;2023-04-24T04:55:37;0.98;;;0.98;;
37383;SDS011;23258;49.718;11.082;2023-04-24T04:58:13;1.60;;;1.50;;
37383;SDS011;23258;49.718;11.082;2023-04-24T05:00:44;1.95;;;1.23;;
37383;SDS011;23258;49.718;11.082;2023-04-24T05:03:24;1.20;;;1.20;;
37383;SDS011;23258;49.718;11.082;2023-04-24T05:06:02;1.50;;;1.35;;
37383;SDS011;23258;49.718;11.082;2023-04-24T05:08:35;1.20;;;1.20;;
37383;SDS011;23258;49.718;11.082;2023-04-24T05:11:08;1.45;;;1.35;;
37383;SDS011;23258;49.718;11.082;2023-04-24T05:13:41;2.22;;;1.40;;
37383;SDS011;23258;49.718;11.082;2023-04-24T05:16:16;0.90;;;0.90;;
37383;SDS011;23258;49.718;11.082;2023-04-24T05:18:48;0.90;;;0.90;;
37383;SDS011;23258;49.718;11.082;2023-04-24T05:21:22;1.67;;;1.38;;
37383;SDS011;23258;49.718;11.082;2023-04-24T05:23:51;1.05;;;0.90;;
37383;SDS011;23258;49.718;11.082;2023-04-24T05:26:40;1.10;;;1.10;;
37383;SDS011;23258;49.718;11.082;2023-04-24T05:29:13;0.90;;;0.90;;
37383;SDS011;23258;49.718;11.082;2023-04-24T05:31:42;1.45;;;1.20;;
37383;SDS011;23258;49.718;11.082;2023-04-24T05:34:12;1.15;;;1.10;;
37383;SDS011;23258;49.718;11.082;2023-04-24T05:36:44;1.33;;;1.20;;
37383;SDS011;23258;49.718;11.082;2023-04-24T05:39:14;1.25;;;1.25;;
37383;SDS011;23258;49.718;11.082;2023-04-24T05:41:44;1.20;;;1.10;;
37383;SDS011;23258;49.718;11.082;2023-04-24T05:44:16;1.70;;;1.60;;
37383;SDS011;23258;49.718;11.082;2023-04-24T05:46:46;1.08;;;0.98;;
37383;SDS011;23258;49.718;11.082;2023-04-24T05:49:17;1.35;;;1.35;;
37383;SDS011;23258;49.718;11.082;2023-04-24T05:51:47;1.45;;;1.35;;
37383;SDS011;23258;49.718;11.082;2023-04-24T05:54:17;1.45;;;1.35;;
37383;SDS011;23258;49.718;11.082;2023-04-24T05:56:46;0.90;;;0.90;;
37383;SDS011;23258;49.718;11.082;2023-04-24T05:59:28;1.45;;;1.35;;
37383;SDS011;23258;49.718;11.082;2023-04-24T06:01:57;1.63;;;1.52;;
37383;SDS011;23258;49.718;11.082;2023-04-24T06:04:27;1.10;;;1.10;;
37383;SDS011;23258;49.718;11.082;2023-04-24T06:06:58;0.93;;;0.90;;
37383;SDS011;23258;49.718;11.082;2023-04-24T06:09:27;1.20;;;1.05;;
37383;SDS011;23258;49.718;11.082;2023-04-24T06:11:57;2.20;;;1.45;;
37383;SDS011;23258;49.718;11.082;2023-04-24T06:14:39;1.55;;;1.45;;
37383;SDS011;23258;49.718;11.082;2023-04-24T06:17:18;0.95;;;0.95;;
37383;SDS011;23258;49.718;11.082;2023-04-24T06:19:49;1.35;;;0.93;;
37383;SDS011;23258;49.718;11.082;2023-04-24T06:22:21;1.52;;;1.42;;
37383;SDS011;23258;49.718;11.082;2023-04-24T06:24:50;1.65;;;1.55;;
37383;SDS011;23258;49.718;11.082;2023-04-24T06:27:20;3.08;;;1.50;;
37383;SDS011;23258;49.718;11.082;2023-04-24T06:29:52;1.25;;;1.17;;
37383;SDS011;23258;49.718;11.082;2023-04-24T06:32:23;2.83;;;1.38;;
37383;SDS011;23258;49.718;11.082;2023-04-24T06:34:54;0.85;;;0.85;;
37383;SDS011;23258;49.718;11.082;2023-04-24T06:37:25;1.55;;;1.45;;
37383;SDS011;23258;49.718;11.082;2023-04-24T06:39:55;1.77;;;1.67;;
37383;SDS011;23258;49.718;11.082;2023-04-24T06:42:24;1.00;;;1.00;;
37383;SDS011;23258;49.718;11.082;2023-04-24T06:44:57;2.22;;;1.83;;
37383;SDS011;23258;49.718;11.082;2023-04-24T06:47:27;1.77;;;1.67;;
37383;SDS011;23258;49.718;11.082;2023-04-24T06:49:57;1.08;;;1.08;;
37383;SDS011;23258;49.718;11.082;2023-04-24T06:52:27;1.38;;;1.38;;
37383;SDS011;23258;49.718;11.082;2023-04-24T06:55:02;1.63;;;1.45;;
37383;SDS011;23258;49.718;11.082;2023-04-24T06:57:32;4.70;;;1.23;;
37383;SDS011;23258;49.718;11.082;2023-04-24T07:00:05;1.75;;;1.02;;
37383;SDS011;23258;49.718;11.082;2023-04-24T07:02:36;0.80;;;0.80;;
37383;SDS011;23258;49.718;11.082;2023-04-24T07:05:06;1.10;;;1.10;;
37383;SDS011;23258;49.718;11.082;2023-04-24T07:07:36;0.85;;;0.85;;
37383;SDS011;23258;49.718;11.082;2023-04-24T07:10:07;1.20;;;1.10;;
37383;SDS011;23258;49.718;11.082;2023-04-24T07:12:38;0.93;;;0.93;;
37383;SDS011;23258;49.718;11.082;2023-04-24T07:15:10;1.50;;;1.40;;
37383;SDS011;23258;49.718;11.082;2023-04-24T07:17:40;0.73;;;0.73;;
37383;SDS011;23258;49.718;11.082;2023-04-24T07:20:11;1.20;;;1.10;;
37383;SDS011;23258;49.718;11.082;2023-04-24T07:22:41;0.60;;;0.60;;
37383;SDS011;23258;49.718;11.082;2023-04-24T07:25:10;1.05;;;1.05;;
37383;SDS011;23258;49.718;11.082;2023-04-24T07:27:40;1.40;;;1.30;;
37383;SDS011;23258;49.718;11.082;2023-04-24T07:30:13;1.48;;;1.38;;
37383;SDS011;23258;49.718;11.082;2023-04-24T07:32:42;0.68;;;0.68;;
37383;SDS011;23258;49.718;11.082;2023-04-24T07:35:12;1.05;;;1.00;;
37383;SDS011;23258;49.718;11.082;2023-04-24T07:37:42;1.17;;;1.17;;
37383;SDS011;23258;49.718;11.082;2023-04-24T07:40:13;1.02;;;1.02;;
37383;SDS011;23258;49.718;11.082;2023-04-24T07:42:42;0.98;;;0.98;;
37383;SDS011;23258;49.718;11.082;2023-04-24T07:45:17;0.90;;;0.90;;
37383;SDS011;23258;49.718;11.082;2023-04-24T07:47:47;0.95;;;0.95;;
37383;SDS011;23258;49.718;11.082;2023-04-24T07:50:17;0.95;;;0.70;;
37383;SDS011;23258;49.718;11.082;2023-04-24T07:52:46;1.70;;;1.15;;
37383;SDS011;23258;49.718;11.082;2023-04-24T07:55:16;1.52;;;1.42;;
37383;SDS011;23258;49.718;11.082;2023-04-24T07:57:50;1.52;;;1.45;;
37383;SDS011;23258;49.718;11.082;2023-04-24T08:00:22;1.05;;;1.05;;
37383;SDS011;23258;49.718;11.082;2023-04-24T08:02:52;1.30;;;1.20;;
37383;SDS011;23258;49.718;11.082;2023-04-24T08:05:22;1.20;;;1.20;;
37383;SDS011;23258;49.718;11.082;2023-04-24T08:07:54;1.85;;;1.58;;
37383;SDS011;23258;49.718;11.082;2023-04-24T08:10:23;1.50;;;1.40;;
37383;SDS011;23258;49.718;11.082;2023-04-24T08:12:53;0.90;;;0.90;;
37383;SDS011;23258;49.718;11.082;2023-04-24T08:15:26;1.15;;;1.15;;
37383;SDS011;23258;49.718;11.082;2023-04-24T08:17:57;2.40;;;1.63;;
37383;SDS011;23258;49.718;11.082;2023-04-24T08:20:26;1.15;;;1.15;;
37383;SDS011;23258;49.718;11.082;2023-04-24T08:22:56;1.40;;;1.30;;
37383;SDS011;23258;49.718;11.082;2023-04-24T08:25:26;1.42;;;1.33;;
37383;SDS011;23258;49.718;11.082;2023-04-24T08:27:55;1.42;;;1.33;;
37383;SDS011;23258;49.718;11.082;2023-04-24T08:30:28;1.10;;;1.02;;
37383;SDS011;23258;49.718;11.082;2023-04-24T08:32:58;1.45;;;1.35;;
37383;SDS011;23258;49.718;11.082;2023-04-24T08:35:28;1.83;;;1.40;;
37383;SDS011;23258;49.718;11.082;2023-04-24T08:37:58;4.20;;;1.67;;
37383;SDS011;23258;49.718;11.082;2023-04-24T08:40:27;1.75;;;1.65;;
37383;SDS011;23258;49.718;11.082;2023-04-24T08:42:58;1.20;;;1.02;;
37383;SDS011;23258;49.718;11.082;2023-04-24T08:45:31;1.50;;;1.48;;
37383;SDS011;23258;49.718;11.082;2023-04-24T08:48:02;1.80;;;1.70;;
37383;SDS011;23258;49.718;11.082;2023-04-24T08:50:42;1.70;;;1.60;;
37383;SDS011;23258;49.718;11.082;2023-04-24T08:53:12;1.30;;;1.30;;
37383;SDS011;23258;49.718;11.082;2023-04-24T08:58:11;1.67;;;1.57;;
37383;SDS011;23258;49.718;11.082;2023-04-24T09:00:43;2.22;;;1.92;;
37383;SDS011;23258;49.718;11.082;2023-04-24T09:03:15;1.60;;;1.50;;
37383;SDS011;23258;49.718;11.082;2023-04-24T09:05:46;1.75;;;1.65;;
37383;SDS011;23258;49.718;11.082;2023-04-24T09:08:17;3.30;;;1.67;;
37383;SDS011;23258;49.718;11.082;2023-04-24T09:10:47;2.05;;;1.40;;
37383;SDS011;23258;49.718;11.082;2023-04-24T09:13:17;1.40;;;1.30;;
37383;SDS011;23258;49.718;11.082;2023-04-24T09:15:50;1.92;;;1.83;;
37383;SDS011;23258;49.718;11.082;2023-04-24T09:18:20;3.70;;;1.85;;
37383;SDS011;23258;49.718;11.082;2023-04-24T09:21:00;1.40;;;1.30;;
37383;SDS011;23258;49.718;11.082;2023-04-24T09:23:30;1.30;;;1.30;;
37383;SDS011;23258;49.718;11.082;2023-04-24T09:26:00;2.03;;;1.77;;
37383;SDS011;23258;49.718;11.082;2023-04-24T09:28:32;2.95;;;1.67;;
37383;SDS011;23258;49.718;11.082;2023-04-24T09:31:05;1.85;;;1.75;;
37383;SDS011;23258;49.718;11.082;2023-04-24T09:33:35;1.25;;;1.15;;
37383;SDS011;23258;49.718;11.082;2023-04-24T09:36:05;1.35;;;1.33;;
37383;SDS011;23258;49.718;11.082;2023-04-24T09:38:35;1.70;;;1.33;;
37383;SDS011;23258;49.718;11.082;2023-04-24T09:41:06;1.30;;;1.20;;
37383;SDS011;23258;49.718;11.082;2023-04-24T09:43:35;2.08;;;1.90;;
37383;SDS011;23258;49.718;11.082;2023-04-24T09:46:08;2.22;;;1.33;;
37383;SDS011;23258;49.718;11.082;2023-04-24T09:48:38;1.50;;;1.17;;
37383;SDS011;23258;49.718;11.082;2023-04-24T09:51:07;1.85;;;1.75;;
37383;SDS011;23258;49.718;11.082;2023-04-24T09:53:38;1.38;;;1.27;;
37383;SDS011;23258;49.718;11.082;2023-04-24T09:56:12;1.48;;;1.40;;
37383;SDS011;23258;49.718;11.082;2023-04-24T09:58:42;1.25;;;1.17;;
37383;SDS011;23258;49.718;11.082;2023-04-24T10:01:14;1.27;;;1.25;;
37383;SDS011;23258;49.718;11.082;2023-04-24T10:03:44;0.88;;;0.88;;
37383;SDS011;23258;49.718;11.082;2023-04-24T10:06:15;1.42;;;1.33;;
37383;SDS011;23258;49.718;11.082;2023-04-24T10:08:44;1.70;;;1.60;;
37383;SDS011;23258;49.718;11.082;2023-04-24T10:11:15;1.70;;;1.60;;
37383;SDS011;23258;49.718;11.082;2023-04-24T10:13:45;1.20;;;1.15;;
37383;SDS011;23258;49.718;11.082;2023-04-24T10:16:17;1.63;;;1.50;;
37383;SDS011;23258;49.718;11.082;2023-04-24T10:18:47;2.05;;;1.70;;
37383;SDS011;23258;49.718;11.082;2023-04-24T10:21:17;1.60;;;1.50;;
37383;SDS011;23258;49.718;11.082;2023-04-24T10:23:48;1.30;;;1.20;;
37383;SDS011;23258;49.718;11.082;2023-04-24T10:26:18;2.13;;;1.70;;
37383;SDS011;23258;49.718;11.082;2023-04-24T10:28:48;1.80;;;1.70;;
37383;SDS011;23258;49.718;11.082;2023-04-24T10:31:20;1.20;;;1.20;;
37383;SDS011;23258;49.718;11.082;2023-04-24T10:33:51;1.77;;;0.80;;
37383;SDS011;23258;49.718;11.082;2023-04-24T10:36:21;0.88;;;0.88;;
37383;SDS011;23258;49.718;11.082;2023-04-24T10:38:54;0.85;;;0.85;;
37383;SDS011;23258;49.718;11.082;2023-04-24T10:41:25;1.17;;;1.02;;
37383;SDS011;23258;49.718;11.082;2023-04-24T10:44:03;0.65;;;0.65;;
37383;SDS011;23258;49.718;11.082;2023-04-24T10:46:36;0.80;;;0.80;;
37383;SDS011;23258;49.718;11.082;2023-04-24T10:49:06;3.92;;;1.08;;
37383;SDS011;23258;49.718;11.082;2023-04-24T10:51:48;0.90;;;0.88;;
37383;SDS011;23258;49.718;11.082;2023-04-24T10:54:26;0.77;;;0.77;;
37383;SDS011;23258;49.718;11.082;2023-04-24T10:59:40;1.13;;;1.08;;
37383;SDS011;23258;49.718;11.082;2023-04-24T11:02:13;1.40;;;1.30;;
37383;SDS011;23258;49.718;11.082;2023-04-24T11:04:43;1.17;;;1.17;;
37383;SDS011;23258;49.718;11.082;2023-04-24T11:07:13;1.48;;;1.38;;
37383;SDS011;23258;49.718;11.082;2023-04-24T11:09:43;1.83;;;1.17;;
37383;SDS011;23258;49.718;11.082;2023-04-24T11:12:12;1.80;;;1.08;;
37383;SDS011;23258;49.718;11.082;2023-04-24T11:17:34;1.70;;;1.60;;
37383;SDS011;23258;49.718;11.082;2023-04-24T11:20:04;1.10;;;1.10;;
37383;SDS011;23258;49.718;11.082;2023-04-24T11:22:52;1.10;;;1.10;;
37383;SDS011;23258;49.718;11.082;2023-04-24T11:25:24;1.08;;;1.08;;
37383;SDS011;23258;49.718;11.082;2023-04-24T11:28:02;1.52;;;1.42;;
37383;SDS011;23258;49.718;11.082;2023-04-24T11:30:32;1.25;;;1.15;;
37383;SDS011;23258;49.718;11.082;2023-04-24T11:33:05;1.23;;;1.13;;
37383;SDS011;23258;49.718;11.082;2023-04-24T11:35:35;1.73;;;1.60;;
37383;SDS011;23258;49.718;11.082;2023-04-24T11:38:06;1.58;;;1.48;;
37383;SDS011;23258;49.718;11.082;2023-04-24T11:40:39;1.65;;;1.55;;
37383;SDS011;23258;49.718;11.082;2023-04-24T11:43:09;1.45;;;1.40;;
37383;SDS011;23258;49.718;11.082;2023-04-24T11:45:47;1.35;;;1.35;;
37383;SDS011;23258;49.718;11.082;2023-04-24T11:48:21;1.45;;;1.35;;
37383;SDS011;23258;49.718;11.082;2023-04-24T11:50:50;1.35;;;1.25;;
37383;SDS011;23258;49.718;11.082;2023-04-24T11:53:20;1.08;;;1.05;;
37383;SDS011;23258;49.718;11.082;2023-04-24T11:55:50;1.30;;;1.25;;
37383;SDS011;23258;49.718;11.082;2023-04-24T11:58:20;1.20;;;1.20;;
37383;SDS011;23258;49.718;11.082;2023-04-24T12:00:55;1.55;;;1.45;;
37383;SDS011;23258;49.718;11.082;2023-04-24T12:03:28;1.75;;;1.65;;
37383;SDS011;23258;49.718;11.082;2023-04-24T12:06:04;1.58;;;1.20;;
37383;SDS011;23258;49.718;11.082;2023-04-24T12:08:35;1.38;;;1.38;;
37383;SDS011;23258;49.718;11.082;2023-04-24T12:11:06;1.30;;;1.25;;
37383;SDS011;23258;49.718;11.082;2023-04-24T12:13:36;2.00;;;1.63;;
37383;SDS011;23258;49.718;11.082;2023-04-24T12:16:06;1.60;;;1.50;;
37383;SDS011;23258;49.718;11.082;2023-04-24T12:18:43;1.85;;;1.42;;
37383;SDS011;23258;49.718;11.082;2023-04-24T12:21:19;1.35;;;1.25;;
37383;SDS011;23258;49.718;11.082;2023-04-24T12:23:53;1.08;;;1.08;;
37383;SDS011;23258;49.718;11.082;2023-04-24T12:26:23;1.13;;;1.13;;
37383;SDS011;23258;49.718;11.082;2023-04-24T12:28:53;2.70;;;1.30;;
37383;SDS011;23258;49.718;11.082;2023-04-24T12:31:23;1.30;;;1.20;;
37383;SDS011;23258;49.718;11.082;2023-04-24T12:33:56;1.00;;;1.00;;
37383;SDS011;23258;49.718;11.082;2023-04-24T12:36:25;1.65;;;1.55;;
37383;SDS011;23258;49.718;11.082;2023-04-24T12:38:55;1.15;;;1.15;;
37383;SDS011;23258;49.718;11.082;2023-04-24T12:41:25;0.90;;;0.90;;
37383;SDS011;23258;49.718;11.082;2023-04-24T12:43:54;1.58;;;1.48;;
37383;SDS011;23258;49.718;11.082;2023-04-24T12:46:24;1.48;;;1.20;;
37383;SDS011;23258;49.718;11.082;2023-04-24T12:48:56;0.75;;;0.75;;
37383;SDS011;23258;49.718;11.082;2023-04-24T12:51:26;1.67;;;1.42;;
37383;SDS011;23258;49.718;11.082;2023-04-24T12:53:56;1.38;;;1.25;;
37383;SDS011;23258;49.718;11.082;2023-04-24T12:56:26;1.20;;;1.10;;
37383;SDS011;23258;49.718;11.082;2023-04-24T12:58:57;1.38;;;1.27;;
37383;SDS011;23258;49.718;11.082;2023-04-24T13:01:26;1.23;;;1.13;;
37383;SDS011;23258;49.718;11.082;2023-04-24T13:03:59;1.20;;;1.20;;
37383;SDS011;23258;49.718;11.082;2023-04-24T13:06:29;1.17;;;1.15;;
37383;SDS011;23258;49.718;11.082;2023-04-24T13:08:58;1.25;;;1.25;;
37383;SDS011;23258;49.718;11.082;2023-04-24T13:11:28;1.23;;;1.20;;
37383;SDS011;23258;49.718;11.082;2023-04-24T13:13:58;2.83;;;1.23;;
37383;SDS011;23258;49.718;11.082;2023-04-24T13:16:27;1.13;;;1.13;;
37383;SDS011;23258;49.718;11.082;2023-04-24T13:19:00;1.35;;;1.25;;
37383;SDS011;23258;49.718;11.082;2023-04-24T13:21:29;1.58;;;1.48;;
37383;SDS011;23258;49.718;11.082;2023-04-24T13:23:59;2.42;;;1.48;;
37383;SDS011;23258;49.718;11.082;2023-04-24T13:26:31;1.50;;;1.40;;
37383;SDS011;23258;49.718;11.082;2023-04-24T13:29:00;1.42;;;1.33;;
37383;SDS011;23258;49.718;11.082;2023-04-24T13:31:30;1.40;;;1.40;;
37383;SDS011;23258;49.718;11.082;2023-04-24T13:34:03;1.40;;;1.40;;
37383;SDS011;23258;49.718;11.082;2023-04-24T13:36:33;1.60;;;1.48;;
37383;SDS011;23258;49.718;11.082;2023-04-24T13:39:02;1.13;;;1.13;;
37383;SDS011;23258;49.718;11.082;2023-04-24T13:41:33;1.30;;;1.05;;
37383;SDS011;23258;49.718;11.082;2023-04-24T13:44:02;1.00;;;1.00;;
37383;SDS011;23258;49.718;11.082;2023-04-24T13:46:32;1.10;;;1.10;;
37383;SDS011;23258;49.718;11.082;2023-04-24T13:49:05;1.27;;;1.17;;
37383;SDS011;23258;49.718;11.082;2023-04-24T13:51:34;1.05;;;1.05;;
37383;SDS011;23258;49.718;11.082;2023-04-24T13:54:04;1.90;;;1.27;;
37383;SDS011;23258;49.718;11.082;2023-04-24T13:56:34;1.25;;;1.25;;
37383;SDS011;23258;49.718;11.082;2023-04-24T13:59:04;1.02;;;1.02;;
37383;SDS011;23258;49.718;11.082;2023-04-24T14:01:34;1.10;;;1.10;;
37383;SDS011;23258;49.718;11.082;2023-04-24T14:04:06;1.15;;;1.15;;
37383;SDS011;23258;49.718;11.082;2023-04-24T14:06:36;1.10;;;1.10;;
37383;SDS011;23258;49.718;11.082;2023-04-24T14:09:06;0.80;;;0.80;;
37383;SDS011;23258;49.718;11.082;2023-04-24T14:11:36;0.63;;;0.63;;
37383;SDS011;23258;49.718;11.082;2023-04-24T14:14:05;0.88;;;0.88;;
37383;SDS011;23258;49.718;11.082;2023-04-24T14:16:35;0.95;;;0.95;;
37383;SDS011;23258;49.718;11.082;2023-04-24T14:19:08;1.40;;;1.30;;
37383;SDS011;23258;49.718;11.082;2023-04-24T14:21:37;2.60;;;1.27;;
37383;SDS011;23258;49.718;11.082;2023-04-24T14:24:07;1.83;;;1.40;;
37383;SDS011;23258;49.718;11.082;2023-04-24T14:26:37;3.45;;;1.60;;
37383;SDS011;23258;49.718;11.082;2023-04-24T14:29:07;2.55;;;1.92;;
37383;SDS011;23258;49.718;11.082;2023-04-24T14:31:40;2.83;;;1.80;;
37383;SDS011;23258;49.718;11.082;2023-04-24T14:34:13;1.52;;;1.33;;
37383;SDS011;23258;49.718;11.082;2023-04-24T14:36:43;1.52;;;1.42;;
37383;SDS011;23258;49.718;11.082;2023-04-24T14:39:12;1.38;;;1.02;;
37383;SDS011;23258;49.718;11.082;2023-04-24T14:41:42;1.65;;;1.55;;
37383;SDS011;23258;49.718;11.082;2023-04-24T14:44:12;1.65;;;1.20;;
37383;SDS011;23258;49.718;11.082;2023-04-24T14:46:41;1.33;;;1.27;;
37383;SDS011;23258;49.718;11.082;2023-04-24T14:49:14;1.35;;;1.25;;
37383;SDS011;23258;49.718;11.082;2023-04-24T14:51:43;1.35;;;1.35;;
37383;SDS011;23258;49.718;11.082;2023-04-24T14:54:13;1.50;;;1.40;;
37383;SDS011;23258;49.718;11.082;2023-04-24T14:56:43;1.52;;;1.52;;
37383;SDS011;23258;49.718;11.082;2023-04-24T14:59:13;1.48;;;1.38;;
37383;SDS011;23258;49.718;11.082;2023-04-24T15:01:46;2.15;;;1.45;;
37383;SDS011;23258;49.718;11.082;2023-04-24T15:04:37;1.30;;;1.13;;
37383;SDS011;23258;49.718;11.082;2023-04-24T15:07:06;2.00;;;1.40;;